BVX2972 ENGM-EGPF
Flight info
| Callsign | BVX2972 |
|---|---|
| Flight time | N/A |
| Altitude | 38000 |
| Route | ATLAP DCT IPMOD DCT RIGVU DCT ADN/N0394F240 P600 PTH |
| Aircraft | A346/H-SDE2E3FGHIJ3J4J5M1RWXY/LB1D1 |
Departure
| Time | 2026-05-06 23:41 |
|---|---|
| Airport | Oslo-Gardermoen International Airport (ENGM) |
Arrival
| Time | N/A |
|---|---|
| Airport | Glasgow Airport (EGPF) |
| Time | Latitude | Longitude | Altitude | Speed | Heading |
|---|---|---|---|---|---|
| 2026-05-06 23:12 | 60.19803 | 11.09999 | 687 ft | 0 kts | 106° |
| 2026-05-06 23:29 | 60.19806 | 11.09982 | 687 ft | 4 kts | 106° |
| 2026-05-06 23:29 | 60.19813 | 11.09935 | 679 ft | 2 kts | 106° |
| 2026-05-06 23:30 | 60.19816 | 11.09890 | 679 ft | 4 kts | 82° |
| 2026-05-06 23:30 | 60.19808 | 11.09849 | 679 ft | 4 kts | 53° |
| 2026-05-06 23:30 | 60.19790 | 11.09815 | 679 ft | 4 kts | 32° |
| 2026-05-06 23:30 | 60.19767 | 11.09793 | 679 ft | 3 kts | 18° |
| 2026-05-06 23:31 | 60.19760 | 11.09788 | 679 ft | 0 kts | 17° |
| 2026-05-06 23:33 | 60.19769 | 11.09794 | 679 ft | 3 kts | 17° |
| 2026-05-06 23:34 | 60.19799 | 11.09813 | 679 ft | 6 kts | 17° |
| 2026-05-06 23:34 | 60.19852 | 11.09842 | 680 ft | 9 kts | 17° |
| 2026-05-06 23:34 | 60.19925 | 11.09885 | 680 ft | 12 kts | 14° |
| 2026-05-06 23:34 | 60.19995 | 11.09821 | 680 ft | 13 kts | 298° |
| 2026-05-06 23:35 | 60.20020 | 11.09685 | 686 ft | 12 kts | 287° |
| 2026-05-06 23:35 | 60.20042 | 11.09539 | 680 ft | 10 kts | 286° |
| 2026-05-06 23:35 | 60.20064 | 11.09387 | 684 ft | 13 kts | 286° |
| 2026-05-06 23:35 | 60.20084 | 11.09237 | 682 ft | 12 kts | 285° |
| 2026-05-06 23:36 | 60.20109 | 11.09056 | 684 ft | 15 kts | 285° |
| 2026-05-06 23:36 | 60.20140 | 11.08839 | 680 ft | 16 kts | 286° |
| 2026-05-06 23:36 | 60.20100 | 11.08689 | 681 ft | 14 kts | 202° |
| 2026-05-06 23:36 | 60.20022 | 11.08641 | 684 ft | 8 kts | 196° |
| 2026-05-06 23:37 | 60.19954 | 11.08601 | 680 ft | 12 kts | 196° |
| 2026-05-06 23:37 | 60.19866 | 11.08550 | 681 ft | 14 kts | 196° |
| 2026-05-06 23:37 | 60.19761 | 11.08489 | 682 ft | 17 kts | 196° |
| 2026-05-06 23:37 | 60.19642 | 11.08422 | 685 ft | 17 kts | 196° |
| 2026-05-06 23:38 | 60.19519 | 11.08351 | 683 ft | 17 kts | 196° |
| 2026-05-06 23:38 | 60.19394 | 11.08279 | 682 ft | 17 kts | 196° |
| 2026-05-06 23:38 | 60.19270 | 11.08208 | 683 ft | 20 kts | 196° |
| 2026-05-06 23:38 | 60.19128 | 11.08126 | 683 ft | 22 kts | 196° |
| 2026-05-06 23:39 | 60.18985 | 11.08043 | 683 ft | 21 kts | 196° |
| 2026-05-06 23:39 | 60.18845 | 11.07962 | 684 ft | 21 kts | 195° |
| 2026-05-06 23:39 | 60.18697 | 11.07878 | 686 ft | 21 kts | 195° |
| 2026-05-06 23:39 | 60.18602 | 11.07820 | 682 ft | 11 kts | 207° |
| 2026-05-06 23:40 | 60.18571 | 11.07678 | 684 ft | 13 kts | 278° |
| 2026-05-06 23:40 | 60.18614 | 11.07507 | 681 ft | 15 kts | 322° |
| 2026-05-06 23:40 | 60.18703 | 11.07492 | 682 ft | 8 kts | 15° |
| 2026-05-06 23:40 | 60.18809 | 11.07554 | 686 ft | 42 kts | 16° |
| 2026-05-06 23:41 | 60.19402 | 11.07890 | 683 ft | 131 kts | 15° |
| 2026-05-06 23:41 | 60.20478 | 11.08514 | 910 ft | 178 kts | 15° |
| 2026-05-06 23:41 | 60.21674 | 11.09217 | 1972 ft | 178 kts | 15° |
| 2026-05-06 23:41 | 60.22838 | 11.09921 | 3120 ft | 171 kts | 15° |
| 2026-05-06 23:42 | 60.24041 | 11.10609 | 3677 ft | 189 kts | 14° |
| 2026-05-06 23:42 | 60.25363 | 11.11191 | 4229 ft | 205 kts | 6° |
| 2026-05-06 23:42 | 60.26850 | 11.11177 | 4793 ft | 223 kts | 353° |
| 2026-05-06 23:42 | 60.28452 | 11.10740 | 5329 ft | 243 kts | 350° |
| 2026-05-06 23:43 | 60.30126 | 11.09730 | 5865 ft | 261 kts | 326° |
| 2026-05-06 23:43 | 60.31376 | 11.07057 | 6665 ft | 267 kts | 295° |
| 2026-05-06 23:43 | 60.31785 | 11.03455 | 7678 ft | 265 kts | 265° |
| 2026-05-06 23:43 | 60.31322 | 10.99879 | 8746 ft | 265 kts | 249° |
| 2026-05-06 23:44 | 60.30874 | 10.96254 | 9750 ft | 270 kts | 268° |
| 2026-05-06 23:44 | 60.31137 | 10.92473 | 10637 ft | 276 kts | 280° |
| 2026-05-06 23:44 | 60.31283 | 10.88534 | 11179 ft | 291 kts | 261° |